createdAt,value
2022-08-09T00:01:02.493Z,436.5
2022-08-09T00:02:46.210Z,436.7
2022-08-09T00:04:29.921Z,437.2
2022-08-09T00:06:13.630Z,436.9
2022-08-09T00:07:57.318Z,438.8
2022-08-09T00:09:41.022Z,439
2022-08-09T00:11:24.736Z,441
2022-08-09T00:13:08.431Z,440.2
2022-08-09T00:14:52.137Z,437.8
2022-08-09T00:16:35.841Z,434.9
2022-08-09T00:18:19.539Z,433.3
2022-08-09T00:20:03.246Z,432.4
2022-08-09T00:21:46.933Z,431
2022-08-09T00:23:30.638Z,431
2022-08-09T00:25:14.345Z,437.8
2022-08-09T00:26:58.056Z,437
2022-08-09T00:28:41.736Z,437.9
2022-08-09T00:30:25.452Z,437.4
2022-08-09T00:32:09.138Z,437.9
2022-08-09T00:33:52.854Z,439.6
2022-08-09T00:35:36.543Z,442.8
2022-08-09T00:37:20.252Z,443.9
2022-08-09T00:39:03.977Z,445.6
2022-08-09T00:40:47.658Z,445.3
2022-08-09T00:42:31.354Z,443
2022-08-09T00:44:15.052Z,443.6
2022-08-09T00:45:58.761Z,441.8
2022-08-09T00:47:42.471Z,439.5
2022-08-09T00:49:26.172Z,438
2022-08-09T00:51:09.859Z,440
2022-08-09T00:52:53.579Z,442.4
2022-08-09T00:54:37.272Z,441.2
2022-08-09T00:56:20.978Z,438.6
2022-08-09T00:58:04.698Z,438
2022-08-09T00:59:48.389Z,439.3
2022-08-09T01:01:32.102Z,436.6
2022-08-09T01:03:15.817Z,435.1
2022-08-09T01:04:59.504Z,437.2
2022-08-09T01:06:43.200Z,436.6
2022-08-09T01:08:26.902Z,437.2
2022-08-09T01:10:10.614Z,435.7
2022-08-09T01:11:54.305Z,441
2022-08-09T01:13:38.000Z,444.4
2022-08-09T01:15:21.719Z,440.7
2022-08-09T01:17:05.426Z,441
2022-08-09T01:18:49.113Z,442.1
2022-08-09T01:20:32.806Z,441.6
2022-08-09T01:22:16.516Z,439.4
2022-08-09T01:24:00.227Z,436.7
2022-08-09T01:25:43.924Z,439.2
2022-08-09T01:27:27.618Z,442.6
2022-08-09T01:29:11.337Z,444.1
2022-08-09T01:30:55.047Z,441.4
2022-08-09T01:32:38.740Z,438.6
2022-08-09T01:34:22.445Z,438.8
2022-08-09T01:36:06.147Z,438.7
2022-08-09T01:37:49.851Z,438.7
2022-08-09T01:39:33.570Z,436.2
2022-08-09T01:41:17.244Z,438.4
2022-08-09T01:44:44.660Z,442.6
2022-08-09T01:46:28.362Z,444.7
2022-08-09T01:48:12.052Z,443.2
2022-08-09T01:49:55.767Z,443.7
2022-08-09T01:51:39.467Z,442.9
2022-08-09T01:53:23.175Z,443.5
2022-08-09T01:55:06.872Z,442.8
2022-08-09T01:56:50.577Z,443.2
2022-08-09T01:58:34.277Z,443.3
2022-08-09T02:00:17.980Z,444.2
2022-08-09T02:02:01.687Z,441.8
2022-08-09T02:03:45.398Z,443
2022-08-09T02:05:29.085Z,444.3
2022-08-09T02:07:12.775Z,447
2022-08-09T02:08:56.491Z,445.1
2022-08-09T02:10:40.198Z,446.7
2022-08-09T02:12:23.888Z,445.5
2022-08-09T02:14:07.603Z,445.2
2022-08-09T02:15:51.292Z,444.3
2022-08-09T02:17:34.984Z,448.4
2022-08-09T02:19:18.697Z,450.2
2022-08-09T02:21:02.393Z,451.9
2022-08-09T02:22:46.109Z,451.9
2022-08-09T02:24:29.793Z,452.4
2022-08-09T02:26:13.500Z,449.2
2022-08-09T02:27:57.205Z,450.4
2022-08-09T02:29:40.917Z,452.9
2022-08-09T02:31:24.607Z,450.9
2022-08-09T02:33:08.332Z,452.4
2022-08-09T02:34:52.014Z,454.2
2022-08-09T02:36:35.719Z,455.3
2022-08-09T02:38:19.418Z,457.5
2022-08-09T02:40:03.119Z,456.8
2022-08-09T02:41:46.813Z,455.5
2022-08-09T02:43:30.516Z,454.2
2022-08-09T02:45:14.232Z,453
2022-08-09T02:46:57.910Z,453.5
2022-08-09T02:48:41.645Z,454
2022-08-09T02:50:25.321Z,453.7
2022-08-09T02:52:09.026Z,450.9
2022-08-09T02:53:52.732Z,449.7
2022-08-09T02:55:36.423Z,451
2022-08-09T02:57:20.136Z,452.1
2022-08-09T02:59:03.850Z,452.6
2022-08-09T03:00:47.548Z,452.2
2022-08-09T03:02:31.226Z,451.2
2022-08-09T03:04:14.932Z,450.5
2022-08-09T03:05:58.633Z,451.8
2022-08-09T03:07:42.359Z,454.9
2022-08-09T03:09:26.050Z,453.6
2022-08-09T03:11:09.733Z,453.6
2022-08-09T03:12:53.461Z,454.2
2022-08-09T03:14:37.147Z,456.4
2022-08-09T03:16:20.844Z,454.2
2022-08-09T03:18:04.569Z,456.4
2022-08-09T03:19:48.263Z,456.2
2022-08-09T03:21:31.969Z,455.2
2022-08-09T03:23:15.673Z,456.1
2022-08-09T03:24:59.355Z,456.6
2022-08-09T03:26:43.058Z,457.1
2022-08-09T03:28:26.768Z,456.7
2022-08-09T03:30:10.469Z,454.7
2022-08-09T03:31:54.147Z,451.8
2022-08-09T03:33:37.863Z,452.3
2022-08-09T03:35:21.560Z,450.7
2022-08-09T03:37:05.272Z,451.2
2022-08-09T03:38:48.964Z,452.6
2022-08-09T03:40:32.670Z,453.6
2022-08-09T03:42:16.375Z,454.5
2022-08-09T03:44:00.086Z,455.5
2022-08-09T03:45:43.789Z,454.6
2022-08-09T03:47:27.464Z,454.2
2022-08-09T03:49:11.178Z,455.4
2022-08-09T03:50:54.883Z,450.8
2022-08-09T03:52:38.595Z,445.2
2022-08-09T03:54:22.286Z,446.4
2022-08-09T03:56:05.982Z,446.3
2022-08-09T03:57:49.691Z,444.7
2022-08-09T03:59:33.389Z,443.2
2022-08-09T04:01:17.098Z,442
2022-08-09T04:03:00.803Z,443.7
2022-08-09T04:04:44.506Z,444.8
2022-08-09T04:06:28.207Z,444.1
2022-08-09T04:08:11.930Z,443.4
2022-08-09T04:09:55.617Z,445.7
2022-08-09T04:11:39.316Z,447.4
2022-08-09T04:13:23.002Z,451
2022-08-09T04:15:06.722Z,450.6
2022-08-09T04:16:50.397Z,450.1
2022-08-09T04:18:34.114Z,449.4
2022-08-09T04:20:17.827Z,449.2
2022-08-09T04:22:01.522Z,448.1
2022-08-09T04:23:45.225Z,446
2022-08-09T04:25:28.919Z,446
2022-08-09T04:27:12.632Z,447.1
2022-08-09T04:28:56.337Z,445.4
2022-08-09T04:30:40.039Z,443.1
2022-08-09T04:32:23.715Z,441.8
2022-08-09T04:34:07.421Z,441
2022-08-09T04:35:51.189Z,442.6
2022-08-09T04:37:34.835Z,443.6
2022-08-09T04:39:18.517Z,444.5
2022-08-09T04:41:02.243Z,446.1
2022-08-09T04:42:45.940Z,446.6
2022-08-09T04:44:29.648Z,446.2
2022-08-09T04:46:13.342Z,443.4
2022-08-09T04:47:57.053Z,443.5
2022-08-09T04:49:40.748Z,443.6
2022-08-09T04:51:24.451Z,440.9
2022-08-09T04:53:08.167Z,439.2
2022-08-09T04:54:51.836Z,437.7
2022-08-09T04:56:35.549Z,438.6
2022-08-09T04:58:19.250Z,440
2022-08-09T05:00:02.967Z,438.4
2022-08-09T05:01:46.640Z,439.6
2022-08-09T05:03:30.355Z,442.8
2022-08-09T05:05:14.050Z,442.5
2022-08-09T05:06:57.762Z,444.5
2022-08-09T05:08:41.459Z,446.9
2022-08-09T05:10:25.155Z,449.6
2022-08-09T05:12:08.874Z,447.4
2022-08-09T05:13:52.566Z,446.2
2022-08-09T05:15:36.272Z,444.2
2022-08-09T05:17:19.991Z,444.6
2022-08-09T05:19:03.678Z,444.2
2022-08-09T05:20:47.387Z,445.6
2022-08-09T05:22:31.089Z,444.6
2022-08-09T05:24:14.781Z,442.9
2022-08-09T05:25:58.488Z,439.1
2022-08-09T05:27:42.200Z,439.5
2022-08-09T05:29:25.914Z,438.7
2022-08-09T05:31:09.606Z,437.8
2022-08-09T05:32:53.302Z,438.3
2022-08-09T05:34:36.994Z,439.7
2022-08-09T05:36:20.708Z,442.5
2022-08-09T05:38:04.424Z,444.4
2022-08-09T05:39:48.125Z,446.4
2022-08-09T05:41:31.818Z,445.8
2022-08-09T05:43:15.516Z,446.8
2022-08-09T05:44:59.219Z,445.4
2022-08-09T05:46:42.924Z,446.4
2022-08-09T05:48:26.622Z,445.2
2022-08-09T05:50:10.319Z,444.3
2022-08-09T05:51:54.030Z,443.3
2022-08-09T05:53:37.725Z,442.8
2022-08-09T05:55:21.432Z,441.9
2022-08-09T05:57:05.151Z,442.8
2022-08-09T05:58:48.839Z,442.6
2022-08-09T06:00:32.545Z,443.2
2022-08-09T06:02:16.253Z,440.7
2022-08-09T06:03:59.970Z,435.7
2022-08-09T06:05:43.649Z,434.7
2022-08-09T06:07:27.360Z,434.3
2022-08-09T06:09:11.056Z,432.6
2022-08-09T06:10:54.768Z,431.8
2022-08-09T06:12:38.457Z,433.6
2022-08-09T06:14:22.177Z,437
2022-08-09T06:16:05.863Z,438.2
2022-08-09T06:17:49.595Z,439.2
2022-08-09T06:19:33.273Z,439.7
2022-08-09T06:21:16.993Z,438.6
2022-08-09T06:23:00.679Z,437.9
2022-08-09T06:24:44.405Z,434.8
2022-08-09T06:26:28.085Z,435.5
2022-08-09T06:28:11.783Z,438.5
2022-08-09T06:29:55.482Z,444.6
2022-08-09T06:31:39.175Z,450.5
2022-08-09T06:33:22.883Z,455.3
2022-08-09T06:35:06.582Z,457.2
2022-08-09T06:36:50.276Z,457.8
2022-08-09T06:38:33.977Z,457.2
2022-08-09T06:40:17.678Z,457
2022-08-09T06:42:01.380Z,455.8
2022-08-09T06:43:45.085Z,453.7
2022-08-09T06:45:28.793Z,452.3
2022-08-09T06:47:12.491Z,452.1
2022-08-09T06:48:56.170Z,454.7
2022-08-09T06:50:39.894Z,453.2
2022-08-09T06:52:23.607Z,451.3
2022-08-09T06:54:07.489Z,448.8
2022-08-09T06:55:50.984Z,451.7
2022-08-09T06:57:34.688Z,452
2022-08-09T06:59:18.397Z,452
2022-08-09T07:01:02.089Z,451
2022-08-09T07:02:45.787Z,449.7
2022-08-09T07:04:29.510Z,451.9
2022-08-09T07:06:13.220Z,451.6
2022-08-09T07:07:56.918Z,451.4
2022-08-09T07:09:40.618Z,449
2022-08-09T07:11:24.328Z,447.8
2022-08-09T07:13:08.017Z,445.5
2022-08-09T07:14:51.724Z,443.2
2022-08-09T07:16:35.434Z,445.3
2022-08-09T07:18:19.128Z,445.9
2022-08-09T07:20:02.836Z,450.7
2022-08-09T07:21:46.549Z,457.2
2022-08-09T07:23:30.232Z,461.4
2022-08-09T07:25:13.936Z,458.6
2022-08-09T07:26:57.642Z,454.5
2022-08-09T07:28:41.359Z,450.4
2022-08-09T07:30:25.055Z,448.2
2022-08-09T07:32:08.770Z,446.7
2022-08-09T07:33:52.454Z,446.5
2022-08-09T07:35:36.162Z,445.3
2022-08-09T07:37:19.875Z,448.5
2022-08-09T07:39:03.583Z,451.8
2022-08-09T07:40:47.277Z,455
2022-08-09T07:42:30.983Z,457.3
2022-08-09T07:44:14.689Z,457
2022-08-09T07:45:58.383Z,457.7
2022-08-09T07:47:42.093Z,458.7
2022-08-09T07:49:25.788Z,457
2022-08-09T07:51:09.504Z,454.1
2022-08-09T07:52:53.208Z,455.2
2022-08-09T07:54:36.889Z,457
2022-08-09T07:56:20.598Z,455.4
2022-08-09T07:58:04.315Z,452.2
2022-08-09T07:59:48.032Z,451.3
2022-08-09T08:01:31.704Z,450.9
2022-08-09T08:03:15.403Z,448.3
2022-08-09T08:04:59.115Z,446.4
2022-08-09T08:06:42.818Z,445.7
2022-08-09T08:08:26.520Z,443.2
2022-08-09T08:10:10.234Z,438.7
2022-08-09T08:11:53.920Z,436.6
2022-08-09T08:13:37.623Z,434.4
2022-08-09T08:15:21.332Z,430.5
2022-08-09T08:17:05.038Z,430.4
2022-08-09T08:18:48.740Z,427.9
2022-08-09T08:20:32.442Z,427.8
2022-08-09T08:22:16.151Z,425.9
2022-08-09T08:23:59.863Z,426
2022-08-09T08:25:43.562Z,425
2022-08-09T08:27:27.257Z,423.4
2022-08-09T08:29:10.956Z,422.6
2022-08-09T08:30:54.657Z,422.1
2022-08-09T08:32:38.359Z,423.7
2022-08-09T08:34:22.060Z,423.6
2022-08-09T08:36:05.764Z,425.1
2022-08-09T08:37:49.475Z,426.3
2022-08-09T08:39:33.165Z,431.1
2022-08-09T08:41:16.877Z,444.3
2022-08-09T08:43:00.572Z,457.5
2022-08-09T08:44:44.285Z,459.7
2022-08-09T08:46:27.991Z,456.6
2022-08-09T08:48:11.678Z,453.7
2022-08-09T08:49:55.378Z,450.2
2022-08-09T08:51:39.083Z,449.3
2022-08-09T08:53:22.785Z,448.8
2022-08-09T08:55:06.490Z,444.7
2022-08-09T08:56:50.212Z,445.3
2022-08-09T08:58:33.905Z,441.6
2022-08-09T09:00:17.602Z,440
2022-08-09T09:02:01.322Z,437.9
2022-08-09T09:03:45.001Z,438.3
2022-08-09T09:05:28.708Z,439.1
2022-08-09T09:07:12.418Z,438.8
2022-08-09T09:08:56.111Z,434.4
2022-08-09T09:10:39.816Z,430.6
2022-08-09T09:12:23.521Z,431
2022-08-09T09:14:07.244Z,431.3
2022-08-09T09:15:50.940Z,431.6
2022-08-09T09:17:34.627Z,432.5
2022-08-09T09:19:18.335Z,432.8
2022-08-09T09:21:02.021Z,432.1
2022-08-09T09:22:45.783Z,433.3
2022-08-09T09:24:29.437Z,432.3
2022-08-09T09:26:13.126Z,434.4
2022-08-09T09:27:56.846Z,436.4
2022-08-09T09:29:40.526Z,439.8
2022-08-09T09:31:24.246Z,444.6
2022-08-09T09:33:07.931Z,445.7
2022-08-09T09:34:51.630Z,441.1
2022-08-09T09:36:35.344Z,440.1
2022-08-09T09:38:19.029Z,441
2022-08-09T09:40:02.773Z,441.9
2022-08-09T09:41:46.452Z,444.1
2022-08-09T09:43:30.142Z,445.9
2022-08-09T09:45:13.856Z,447.9
2022-08-09T09:46:57.560Z,451.3
2022-08-09T09:48:41.297Z,450.1
2022-08-09T09:50:24.950Z,452.3
2022-08-09T09:52:08.661Z,461.4
2022-08-09T09:53:52.367Z,462.2
2022-08-09T09:55:36.069Z,470.1
2022-08-09T09:57:19.774Z,476.1
2022-08-09T09:59:03.468Z,484.8
2022-08-09T10:00:47.182Z,497.1
2022-08-09T10:02:30.897Z,500.3
2022-08-09T10:04:14.603Z,500.7
2022-08-09T10:05:58.290Z,504
2022-08-09T10:07:41.984Z,502.8
2022-08-09T10:09:25.700Z,502
2022-08-09T10:11:09.404Z,503.2
2022-08-09T10:12:53.096Z,504.5
2022-08-09T10:14:36.803Z,502.3
2022-08-09T10:16:20.490Z,499
2022-08-09T10:18:04.203Z,499.7
2022-08-09T10:19:47.903Z,501.9
2022-08-09T10:21:31.606Z,501.8
2022-08-09T10:23:15.298Z,508.1
2022-08-09T10:24:59.014Z,509.1
2022-08-09T10:26:42.704Z,515.1
2022-08-09T10:28:26.398Z,520.5
2022-08-09T10:30:10.108Z,517.5
2022-08-09T10:31:53.808Z,511.1
2022-08-09T10:33:37.517Z,506.9
2022-08-09T10:35:21.204Z,504.1
2022-08-09T10:37:04.905Z,504.1
2022-08-09T10:38:48.621Z,506.1
2022-08-09T10:40:32.314Z,505.2
2022-08-09T10:42:16.010Z,503.2
2022-08-09T10:43:59.729Z,503.4
2022-08-09T10:45:43.434Z,502.4
2022-08-09T10:47:27.129Z,502.6
2022-08-09T10:49:10.819Z,501.2
2022-08-09T10:50:54.540Z,497.6
2022-08-09T10:52:38.244Z,494.9
2022-08-09T10:54:21.935Z,495.6
2022-08-09T10:56:05.641Z,494.7
2022-08-09T10:57:49.353Z,494.2
2022-08-09T10:59:33.061Z,493.6
2022-08-09T11:01:16.741Z,490.6
2022-08-09T11:03:00.446Z,488.6
2022-08-09T11:04:44.156Z,490.5
2022-08-09T11:06:27.865Z,489
2022-08-09T11:08:11.550Z,484.4
2022-08-09T11:09:55.254Z,482.1
2022-08-09T11:11:38.958Z,479.5
2022-08-09T11:13:22.651Z,478.4
2022-08-09T11:15:06.356Z,478
2022-08-09T11:16:50.051Z,472.8
2022-08-09T11:18:33.756Z,473.6
2022-08-09T11:20:17.480Z,474.3
2022-08-09T11:22:01.182Z,471.4
2022-08-09T11:23:44.888Z,472.7
2022-08-09T11:25:28.574Z,470.4
2022-08-09T11:27:12.281Z,466.6
2022-08-09T11:28:55.981Z,466.7
2022-08-09T11:30:39.683Z,467.3
2022-08-09T11:32:23.385Z,467.7
2022-08-09T11:34:07.069Z,468.4
2022-08-09T11:35:50.767Z,466.2
2022-08-09T11:37:34.480Z,463.1
2022-08-09T11:39:18.195Z,460.9
2022-08-09T11:41:01.888Z,461
2022-08-09T11:42:45.572Z,460.1
2022-08-09T11:44:29.295Z,455.7
2022-08-09T11:46:12.988Z,455.7
2022-08-09T11:47:56.714Z,455.6
2022-08-09T11:49:40.398Z,451
2022-08-09T11:51:24.593Z,450.6
2022-08-09T11:53:07.800Z,452.6
2022-08-09T11:54:51.507Z,455.7
2022-08-09T11:56:35.200Z,455.8
2022-08-09T11:58:18.916Z,456.7
2022-08-09T12:00:02.608Z,455.5
2022-08-09T12:01:46.302Z,455
2022-08-09T12:03:30.020Z,455.1
2022-08-09T12:05:13.716Z,451.4
2022-08-09T12:06:57.443Z,449
2022-08-09T12:08:41.131Z,449
2022-08-09T12:10:24.823Z,452.2
2022-08-09T12:12:08.534Z,448.5
2022-08-09T12:13:52.230Z,444.8
2022-08-09T12:15:36.542Z,445
2022-08-09T12:17:19.637Z,442.5
2022-08-09T12:19:03.331Z,439.3
2022-08-09T12:20:47.072Z,436.3
2022-08-09T12:22:30.740Z,433.8
2022-08-09T12:24:14.435Z,432.7
2022-08-09T12:25:58.137Z,439.4
2022-08-09T12:27:41.853Z,449.8
2022-08-09T12:29:25.544Z,464.5
2022-08-09T12:31:09.239Z,483.7
2022-08-09T12:32:52.957Z,497.8
2022-08-09T12:34:36.653Z,502
2022-08-09T12:36:20.343Z,495.7
2022-08-09T12:38:04.080Z,485.1
2022-08-09T12:39:47.764Z,484.4
2022-08-09T12:41:31.470Z,482.1
2022-08-09T12:43:15.160Z,478.1
2022-08-09T12:44:58.871Z,479.7
2022-08-09T12:46:42.574Z,481.5
2022-08-09T12:48:26.293Z,507
2022-08-09T12:50:09.991Z,530.5
2022-08-09T12:51:53.692Z,545.1
2022-08-09T12:53:37.380Z,544.1
2022-08-09T12:55:21.090Z,540.3
2022-08-09T12:57:04.789Z,539.9
2022-08-09T12:58:48.514Z,541.5
2022-08-09T13:00:32.204Z,544
2022-08-09T13:02:15.899Z,539.8
2022-08-09T13:03:59.600Z,543.7
2022-08-09T13:05:43.306Z,550.7
2022-08-09T13:07:27.022Z,554.1
2022-08-09T13:09:10.687Z,549.4
2022-08-09T13:10:54.406Z,541.7
2022-08-09T13:12:38.109Z,536.2
2022-08-09T13:14:21.809Z,533.4
2022-08-09T13:16:05.512Z,533.1
2022-08-09T13:17:49.224Z,528.9
2022-08-09T13:19:32.921Z,527.1
2022-08-09T13:21:16.623Z,527.9
2022-08-09T13:23:00.335Z,527.9
2022-08-09T13:24:44.022Z,528
2022-08-09T13:26:27.722Z,524.8
2022-08-09T13:28:11.427Z,522
2022-08-09T13:29:55.147Z,517.6
2022-08-09T13:31:38.835Z,516
2022-08-09T13:33:22.542Z,514.5
2022-08-09T13:35:06.246Z,514.6
2022-08-09T13:36:49.945Z,511.3
2022-08-09T13:38:33.654Z,506.7
2022-08-09T13:40:17.350Z,507.2
2022-08-09T13:42:01.051Z,507.5
2022-08-09T13:43:44.754Z,510.3
2022-08-09T13:45:28.461Z,514.8
2022-08-09T13:47:12.169Z,521.1
2022-08-09T13:48:55.865Z,524.6
2022-08-09T13:50:39.570Z,528
2022-08-09T13:52:23.265Z,531.2
2022-08-09T13:54:06.961Z,534.8
2022-08-09T13:55:50.672Z,539.2
2022-08-09T13:57:34.370Z,548
2022-08-09T13:59:18.065Z,553.2
2022-08-09T14:01:01.778Z,606.7
2022-08-09T14:02:45.462Z,595.6
2022-08-09T14:04:29.170Z,587.3
2022-08-09T14:06:12.866Z,586.5
2022-08-09T14:07:56.569Z,582.4
2022-08-09T14:09:40.268Z,578.4
2022-08-09T14:11:23.976Z,570
2022-08-09T14:13:07.677Z,567.6
2022-08-09T14:14:51.388Z,563.6
2022-08-09T14:16:35.087Z,561.8
2022-08-09T14:18:18.792Z,561.2
2022-08-09T14:20:02.485Z,558.1
2022-08-09T14:21:46.192Z,554.5
2022-08-09T14:23:29.876Z,549.9
2022-08-09T14:25:13.586Z,545
2022-08-09T14:26:57.293Z,539.9
2022-08-09T14:28:40.999Z,538.6
2022-08-09T14:30:24.706Z,535.6
2022-08-09T14:32:08.408Z,532.2
2022-08-09T14:33:52.111Z,528.4
2022-08-09T14:35:35.811Z,527.2
2022-08-09T14:37:19.524Z,527.4
2022-08-09T14:39:03.234Z,525.3
2022-08-09T14:40:46.920Z,523.3
2022-08-09T14:42:30.622Z,523
2022-08-09T14:44:14.339Z,522.7
2022-08-09T14:45:58.022Z,522.4
2022-08-09T14:47:41.729Z,519.8
2022-08-09T14:49:25.432Z,516.3
2022-08-09T14:51:09.131Z,515.2
2022-08-09T14:52:52.831Z,513.5
2022-08-09T14:54:36.538Z,512.8
2022-08-09T14:56:20.236Z,510.4
2022-08-09T14:58:03.935Z,509.2
2022-08-09T14:59:47.646Z,507.4
2022-08-09T15:01:31.357Z,504
2022-08-09T15:03:15.028Z,503.5
2022-08-09T15:04:58.752Z,502.1
2022-08-09T15:06:42.447Z,502.9
2022-08-09T15:08:26.155Z,503.1
2022-08-09T15:10:09.828Z,503.4
2022-08-09T15:11:53.545Z,501.8
2022-08-09T15:13:37.247Z,498.7
2022-08-09T15:15:20.947Z,497.9
2022-08-09T15:17:04.650Z,497
2022-08-09T15:18:48.362Z,494.1
2022-08-09T15:20:32.053Z,494.4
2022-08-09T15:22:15.760Z,494.2
2022-08-09T15:23:59.463Z,494.8
2022-08-09T15:25:43.171Z,496.6
2022-08-09T15:27:26.885Z,497.1
2022-08-09T15:29:10.565Z,493.5
2022-08-09T15:30:54.269Z,491.2
2022-08-09T15:32:37.990Z,490
2022-08-09T15:34:21.693Z,489.8
2022-08-09T15:36:05.618Z,488.9
2022-08-09T15:37:49.089Z,487.1
2022-08-09T15:39:32.798Z,486.1
2022-08-09T15:41:16.503Z,486.1
2022-08-09T15:43:00.188Z,485.1
2022-08-09T15:44:43.880Z,483.7
2022-08-09T15:46:27.590Z,480.7
2022-08-09T15:48:11.301Z,477.8
2022-08-09T15:49:54.986Z,478.8
2022-08-09T15:51:38.696Z,478.4
2022-08-09T15:53:22.409Z,477.3
2022-08-09T15:55:06.109Z,479.7
2022-08-09T15:56:49.808Z,483.3
2022-08-09T15:58:33.514Z,489.4
2022-08-09T16:00:17.227Z,499.1
2022-08-09T16:02:00.920Z,507.8
2022-08-09T16:03:44.620Z,513.3
2022-08-09T16:05:28.327Z,517.9
2022-08-09T16:07:12.045Z,523.5
2022-08-09T16:08:55.715Z,529.3
2022-08-09T16:10:39.433Z,536.7
2022-08-09T16:12:23.168Z,544.6
2022-08-09T16:14:06.870Z,550.9
2022-08-09T16:15:50.538Z,554.7
2022-08-09T16:17:34.241Z,560.5
2022-08-09T16:19:17.935Z,564.1
2022-08-09T16:21:01.646Z,564.6
2022-08-09T16:22:45.362Z,568.4
2022-08-09T16:24:29.041Z,570.6
2022-08-09T16:26:12.741Z,570.4
2022-08-09T16:27:56.440Z,569.5
2022-08-09T16:29:40.150Z,567.4
2022-08-09T16:31:23.828Z,566.7
2022-08-09T16:33:07.550Z,571
2022-08-09T16:34:51.260Z,569.9
2022-08-09T16:36:34.929Z,571.4
2022-08-09T16:38:18.647Z,573.5
2022-08-09T16:40:02.350Z,577.6
2022-08-09T16:41:46.050Z,584.1
2022-08-09T16:43:29.730Z,586.4
2022-08-09T16:45:13.446Z,587.7
2022-08-09T16:46:57.156Z,588
2022-08-09T16:48:40.858Z,591.7
2022-08-09T16:50:24.535Z,594.4
2022-08-09T16:52:08.252Z,596.5
2022-08-09T16:53:51.970Z,600
2022-08-09T16:55:35.651Z,603
2022-08-09T16:57:19.347Z,609.1
2022-08-09T16:59:03.070Z,617.4
2022-08-09T17:00:46.770Z,622
2022-08-09T17:02:30.464Z,622.8
2022-08-09T17:04:14.156Z,622.2
2022-08-09T17:05:57.869Z,627.5
2022-08-09T17:07:41.580Z,634.4
2022-08-09T17:09:25.283Z,634.5
2022-08-09T17:11:08.990Z,632.7
2022-08-09T17:12:52.665Z,631.9
2022-08-09T17:14:36.377Z,630.7
2022-08-09T17:16:20.089Z,634.4
2022-08-09T17:18:03.776Z,638.7
2022-08-09T17:19:47.484Z,644.8
2022-08-09T17:21:31.187Z,652.6
2022-08-09T17:23:14.894Z,659.9
2022-08-09T17:24:58.568Z,666.1
2022-08-09T17:26:42.285Z,667.9
2022-08-09T17:28:25.985Z,661.9
2022-08-09T17:30:09.706Z,648.9
2022-08-09T17:31:53.376Z,631.3
2022-08-09T17:33:37.083Z,611.8
2022-08-09T17:35:20.792Z,602.7
2022-08-09T17:37:04.493Z,605.3
2022-08-09T17:38:48.178Z,606.9
2022-08-09T17:40:31.890Z,600.4
2022-08-09T17:42:15.586Z,596.7
2022-08-09T17:43:59.311Z,596.5
2022-08-09T17:45:42.994Z,596.3
2022-08-09T17:47:26.700Z,596.3
2022-08-09T17:49:10.404Z,594.3
2022-08-09T17:50:54.105Z,594.1
2022-08-09T17:52:37.789Z,592.7
2022-08-09T17:54:21.504Z,593.3
2022-08-09T17:56:05.207Z,597.7
2022-08-09T17:57:48.912Z,602.7
2022-08-09T17:59:32.594Z,606.1
2022-08-09T18:01:16.295Z,609.3
2022-08-09T18:03:00.021Z,607
2022-08-09T18:04:43.710Z,607.3
2022-08-09T18:06:27.398Z,606.9
2022-08-09T18:08:11.117Z,608.8
2022-08-09T18:09:54.810Z,610.5
2022-08-09T18:11:38.523Z,613.2
2022-08-09T18:13:22.206Z,615.1
2022-08-09T18:15:05.906Z,621
2022-08-09T18:16:49.608Z,628.2
2022-08-09T18:18:33.332Z,631.7
2022-08-09T18:20:17.009Z,632.4
2022-08-09T18:22:00.735Z,635.6
2022-08-09T18:23:44.425Z,637.5
2022-08-09T18:25:28.128Z,636.2
2022-08-09T18:27:11.827Z,637.6
2022-08-09T18:28:55.542Z,637.8
2022-08-09T18:30:39.239Z,639.9
2022-08-09T18:32:22.964Z,644
2022-08-09T18:34:06.661Z,649
2022-08-09T18:35:50.350Z,652.6
2022-08-09T18:37:46.746Z,651.3
2022-08-09T18:39:17.773Z,652.2
2022-08-09T18:41:01.459Z,649.8
2022-08-09T18:42:45.180Z,649.6
2022-08-09T18:44:28.865Z,650.3
2022-08-09T18:46:12.573Z,647.5
2022-08-09T18:47:56.278Z,648.8
2022-08-09T18:49:39.987Z,655.7
2022-08-09T18:51:23.691Z,664.6
2022-08-09T18:53:07.396Z,671.9
2022-08-09T18:54:51.105Z,678.5
2022-08-09T18:56:34.806Z,615.6
2022-08-09T18:58:18.497Z,511.1
2022-08-09T19:00:02.213Z,491.3
2022-08-09T19:01:45.905Z,482.1
2022-08-09T19:03:29.618Z,474.5
2022-08-09T19:05:13.311Z,464.2
2022-08-09T19:06:57.319Z,454.5
2022-08-09T19:08:40.717Z,449.9
2022-08-09T19:10:24.425Z,443.8
2022-08-09T19:12:08.155Z,438.9
2022-08-09T19:13:51.842Z,435.2
2022-08-09T19:15:35.562Z,432.3
2022-08-09T19:17:19.242Z,431
2022-08-09T19:19:02.955Z,430.5
2022-08-09T19:20:46.654Z,430.4
2022-08-09T19:22:30.339Z,427.3
2022-08-09T19:24:14.047Z,423.4
2022-08-09T19:25:57.756Z,423.4
2022-08-09T19:27:41.462Z,425.5
2022-08-09T19:29:25.150Z,427.8
2022-08-09T19:31:08.864Z,429.8
2022-08-09T19:32:52.574Z,430.4
2022-08-09T19:34:36.273Z,428.4
2022-08-09T19:36:19.963Z,427.8
2022-08-09T19:38:03.673Z,427.6
2022-08-09T19:39:47.377Z,426.6
2022-08-09T19:41:31.073Z,427.8
2022-08-09T19:43:14.763Z,429
2022-08-09T19:44:58.490Z,428.1
2022-08-09T19:46:42.181Z,430.8
2022-08-09T19:48:25.879Z,428.9
2022-08-09T19:50:09.587Z,427.9
2022-08-09T19:51:53.278Z,428.8
2022-08-09T19:53:36.997Z,430
2022-08-09T19:55:20.692Z,429.6
2022-08-09T19:57:04.395Z,429.6
2022-08-09T19:58:48.099Z,429.4
2022-08-09T20:00:31.804Z,431.9
2022-08-09T20:02:15.508Z,432.3
2022-08-09T20:03:59.196Z,432.8
2022-08-09T20:05:42.915Z,434.2
2022-08-09T20:07:26.597Z,435.3
2022-08-09T20:09:10.305Z,434
2022-08-09T20:10:54.021Z,432.9
2022-08-09T20:12:37.714Z,433.4
2022-08-09T20:14:21.417Z,430.9
2022-08-09T20:16:05.110Z,428.4
2022-08-09T20:17:48.812Z,427.8
2022-08-09T20:19:32.533Z,435.1
2022-08-09T20:21:16.222Z,436.7
2022-08-09T20:22:59.939Z,439.3
2022-08-09T20:24:43.647Z,439.9
2022-08-09T20:26:27.335Z,438.2
2022-08-09T20:28:11.045Z,439.8
2022-08-09T20:29:54.738Z,437.2
2022-08-09T20:31:38.452Z,437.7
2022-08-09T20:33:22.135Z,438.4
2022-08-09T20:35:05.848Z,436
2022-08-09T20:36:49.530Z,435.9
2022-08-09T20:38:33.240Z,434.2
2022-08-09T20:40:16.925Z,431.6
2022-08-09T20:42:00.626Z,433.2
2022-08-09T20:43:44.340Z,436.9
2022-08-09T20:45:28.051Z,438.1
2022-08-09T20:47:11.734Z,432.3
2022-08-09T20:48:55.422Z,434.2
2022-08-09T20:50:39.126Z,434.3
2022-08-09T20:52:22.840Z,435.1
2022-08-09T20:54:06.538Z,435.3
2022-08-09T20:55:50.241Z,434.7
2022-08-09T20:57:33.933Z,434
2022-08-09T20:59:17.630Z,432.9
2022-08-09T21:01:01.372Z,432.8
2022-08-09T21:02:45.044Z,432.5
2022-08-09T21:04:28.753Z,434.1
2022-08-09T21:06:12.460Z,432.3
2022-08-09T21:07:56.155Z,432.6
2022-08-09T21:09:39.851Z,432.6
2022-08-09T21:13:07.252Z,435.8
2022-08-09T21:14:50.961Z,437.5
2022-08-09T21:16:34.639Z,436.2
2022-08-09T21:18:18.346Z,434.9
2022-08-09T21:20:02.047Z,434.6
2022-08-09T21:21:45.775Z,433.2
2022-08-09T21:23:29.445Z,432.6
2022-08-09T21:25:13.152Z,430.7
2022-08-09T21:26:56.846Z,431.4
2022-08-09T21:28:40.559Z,430.4
2022-08-09T21:30:24.235Z,430.9
2022-08-09T21:32:07.967Z,429.8
2022-08-09T21:33:51.666Z,429.3
2022-08-09T21:35:35.356Z,430.7
2022-08-09T21:37:19.087Z,427.8
2022-08-09T21:39:02.784Z,426.8
2022-08-09T21:40:46.475Z,425.9
2022-08-09T21:42:30.180Z,426.4
2022-08-09T21:44:13.891Z,427.5
2022-08-09T21:45:57.594Z,429.4
2022-08-09T21:47:41.307Z,430.4
2022-08-09T21:49:24.998Z,431.1
2022-08-09T21:51:13.236Z,434.3
2022-08-09T21:52:52.383Z,433.8
2022-08-09T21:54:36.100Z,432.4
2022-08-09T21:56:19.806Z,432
2022-08-09T21:58:03.503Z,436.4
2022-08-09T21:59:47.200Z,438.8
2022-08-09T22:01:30.895Z,437.3
2022-08-09T22:03:14.601Z,436.2
2022-08-09T22:04:58.314Z,434.8
2022-08-09T22:06:42.002Z,432.5
2022-08-09T22:08:25.698Z,433.5
2022-08-09T22:10:09.403Z,433.8
2022-08-09T22:11:53.107Z,435
2022-08-09T22:13:36.825Z,432.6
2022-08-09T22:15:20.522Z,430.9
2022-08-09T22:17:04.222Z,430.3
2022-08-09T22:18:47.922Z,429.1
2022-08-09T22:20:31.616Z,429
2022-08-09T22:22:15.344Z,428.3
2022-08-09T22:23:59.036Z,429.4
2022-08-09T22:25:42.743Z,430.6
2022-08-09T22:27:26.453Z,429.7